Time;durP1;ratioP1;P1;durP2;ratioP2;P2;SDS_P1;SDS_P2;PMS_P1;PMS_P2;Temp;Humidity;BMP_temperature;BMP_pressure;BME280_temperature;BME280_humidity;BME280_pressure;Samples;Min_cycle;Max_cycle;Signal;HPM_P1;HPM_P2
2022/10/27 00:00:36;;;;;;;11.52;8.50;;;13.20;99.90;;;;;;5018766;28;20446;-29
2022/10/27 00:03:02;;;;;;;10.13;7.97;;;13.20;99.90;;;;;;5038792;28;20072;-29
2022/10/27 00:05:28;;;;;;;15.13;9.48;;;13.10;99.90;;;;;;5027383;28;20037;-29
2022/10/27 00:07:53;;;;;;;10.80;7.97;;;13.10;99.90;;;;;;5022823;28;20115;-29
2022/10/27 00:10:19;;;;;;;13.52;9.13;;;13.00;99.90;;;;;;5031453;28;20045;-29
2022/10/27 00:12:44;;;;;;;10.55;8.18;;;12.90;99.90;;;;;;5019660;28;20037;-29
2022/10/27 00:15:11;;;;;;;11.77;7.82;;;12.90;99.90;;;;;;5019695;28;20035;-29
2022/10/27 00:17:37;;;;;;;10.50;8.27;;;12.90;99.90;;;;;;5035882;28;20037;-29
2022/10/27 00:20:04;;;;;;;11.73;7.97;;;12.80;99.90;;;;;;5042033;28;20033;-29
2022/10/27 00:22:30;;;;;;;11.50;7.28;;;12.80;99.90;;;;;;5027342;28;20092;-29
2022/10/27 00:24:55;;;;;;;13.15;9.68;;;12.80;99.90;;;;;;5034244;28;20118;-29
2022/10/27 00:27:21;;;;;;;13.57;8.93;;;12.80;99.90;;;;;;5035230;28;20045;-29
2022/10/27 00:29:46;;;;;;;11.02;9.55;;;12.80;99.90;;;;;;5035672;28;20164;-29
2022/10/27 00:32:12;;;;;;;14.90;9.30;;;12.90;99.90;;;;;;5028650;28;20479;-29
2022/10/27 00:34:38;;;;;;;12.88;8.15;;;12.90;99.90;;;;;;5031205;28;20040;-29
2022/10/27 00:37:04;;;;;;;10.88;8.75;;;12.90;99.90;;;;;;5034326;28;20489;-29
2022/10/27 00:39:29;;;;;;;17.20;9.82;;;12.90;99.90;;;;;;5029489;28;20029;-29
2022/10/27 00:41:55;;;;;;;13.55;9.43;;;12.90;99.90;;;;;;5035913;28;20037;-30
2022/10/27 00:44:42;;;;;;;11.70;8.57;;;13.00;99.90;;;;;;5010648;28;20136;-29
2022/10/27 00:47:31;;;;;;;13.10;9.82;;;13.00;99.90;;;;;;5036444;28;20048;-29
2022/10/27 00:50:01;;;;;;;13.80;10.48;;;13.10;99.90;;;;;;5031909;28;20124;-29
2022/10/27 00:52:44;;;;;;;11.05;9.45;;;13.10;99.90;;;;;;5032331;28;20049;-29
2022/10/27 00:55:38;;;;;;;12.07;9.80;;;13.20;99.90;;;;;;5040337;28;20041;-29
2022/10/27 00:58:09;;;;;;;15.60;10.25;;;13.20;99.90;;;;;;5027545;28;20049;-30
2022/10/27 01:00:39;;;;;;;15.18;9.55;;;13.20;99.90;;;;;;5035075;28;20116;-32
2022/10/27 01:03:08;;;;;;;16.00;10.05;;;13.30;99.90;;;;;;5035633;28;20477;-29
2022/10/27 01:05:35;;;;;;;12.27;9.80;;;13.30;99.90;;;;;;5036158;28;20052;-29
2022/10/27 01:08:03;;;;;;;10.52;8.10;;;13.40;99.90;;;;;;5019823;28;20041;-30
2022/10/27 01:10:29;;;;;;;13.32;9.95;;;13.40;99.90;;;;;;5013029;28;20498;-29
2022/10/27 01:12:55;;;;;;;15.52;10.25;;;13.40;99.90;;;;;;5029009;28;20395;-29
2022/10/27 01:15:32;;;;;;;13.15;10.43;;;13.40;99.90;;;;;;5014121;28;20041;-30
2022/10/27 01:18:15;;;;;;;10.43;8.88;;;13.50;99.90;;;;;;5026437;28;20037;-29
2022/10/27 01:20:46;;;;;;;13.68;9.50;;;13.50;99.90;;;;;;5031324;28;20049;-29
2022/10/27 01:23:31;;;;;;;14.52;9.40;;;13.50;99.90;;;;;;5026053;28;20038;-29
2022/10/27 01:26:28;;;;;;;9.93;8.50;;;13.60;99.90;;;;;;5026904;28;20033;-29
2022/10/27 01:29:12;;;;;;;14.20;9.55;;;13.50;99.90;;;;;;5021874;28;20106;-29
2022/10/27 01:32:04;;;;;;;12.85;9.48;;;13.60;99.90;;;;;;5022347;28;20436;-30
2022/10/27 01:34:35;;;;;;;13.02;10.00;;;13.60;99.90;;;;;;5024317;28;20422;-29
2022/10/27 01:37:14;;;;;;;10.98;9.38;;;13.60;99.90;;;;;;5032554;28;20049;-29
2022/10/27 01:40:03;;;;;;;11.20;9.63;;;13.60;99.90;;;;;;5021543;28;20047;-30
2022/10/27 01:42:36;;;;;;;9.32;8.27;;;13.60;99.90;;;;;;5021955;28;20034;-29
2022/10/27 01:45:04;;;;;;;16.38;9.48;;;13.60;99.90;;;;;;5038032;28;20482;-29
2022/10/27 01:47:30;;;;;;;12.45;8.90;;;13.60;99.90;;;;;;5031130;28;20288;-29
2022/10/27 01:49:56;;;;;;;12.43;10.77;;;13.60;99.90;;;;;;5023365;28;20048;-29
2022/10/27 01:52:42;;;;;;;11.88;9.52;;;13.70;99.90;;;;;;5033167;28;20465;-29
2022/10/27 01:55:25;;;;;;;13.93;9.70;;;13.70;99.90;;;;;;5031822;28;20438;-29
2022/10/27 01:58:16;;;;;;;13.55;8.95;;;13.70;99.90;;;;;;5030945;28;20170;-30
2022/10/27 02:01:04;;;;;;;15.43;9.63;;;13.70;99.90;;;;;;5020677;28;20049;-29
2022/10/27 02:04:08;;;;;;;13.07;9.30;;;13.70;99.90;;;;;;5033977;28;20041;-29
2022/10/27 02:06:39;;;;;;;12.65;9.50;;;13.80;99.90;;;;;;5015133;28;20502;-30
2022/10/27 02:09:18;;;;;;;13.52;9.60;;;13.80;99.90;;;;;;5042224;28;20513;-30
2022/10/27 02:11:47;;;;;;;11.60;8.75;;;13.70;99.90;;;;;;5029500;28;20029;-30
2022/10/27 02:14:14;;;;;;;13.38;9.23;;;13.70;99.90;;;;;;5035998;28;20045;-29
2022/10/27 02:16:44;;;;;;;10.98;8.77;;;13.60;99.90;;;;;;5030779;28;20041;-29
2022/10/27 02:19:36;;;;;;;15.00;9.02;;;13.60;99.90;;;;;;5034823;28;20051;-30
2022/10/27 02:22:03;;;;;;;11.50;8.57;;;13.50;99.90;;;;;;5022667;28;20502;-29
2022/10/27 02:24:30;;;;;;;14.50;10.73;;;13.40;99.90;;;;;;5036273;28;20042;-30
2022/10/27 02:27:06;;;;;;;12.90;9.18;;;13.40;99.90;;;;;;5033745;28;20039;-29
2022/10/27 02:29:45;;;;;;;10.55;9.45;;;13.30;99.90;;;;;;5032048;28;20429;-29
2022/10/27 02:32:17;;;;;;;10.68;8.32;;;13.20;99.90;;;;;;5035568;28;20115;-30
2022/10/27 02:34:46;;;;;;;13.13;9.27;;;13.20;99.90;;;;;;5023629;28;20091;-30
2022/10/27 02:37:24;;;;;;;12.50;8.63;;;13.10;99.90;;;;;;5033450;28;20038;-29
2022/10/27 02:39:50;;;;;;;11.85;8.40;;;13.00;99.90;;;;;;4990511;28;20049;-29
2022/10/27 02:42:15;;;;;;;12.60;8.18;;;12.90;99.90;;;;;;5038080;28;20038;-29
2022/10/27 02:44:41;;;;;;;13.05;10.05;;;12.90;99.90;;;;;;5028534;28;20041;-29
2022/10/27 02:47:07;;;;;;;11.15;9.82;;;12.90;99.90;;;;;;5026632;28;20072;-29
2022/10/27 02:49:32;;;;;;;11.93;8.75;;;12.80;99.90;;;;;;5009258;28;20029;-29
2022/10/27 02:51:58;;;;;;;10.80;9.15;;;12.80;99.90;;;;;;5033144;28;20040;-29
2022/10/27 02:54:24;;;;;;;15.20;9.98;;;12.80;99.90;;;;;;5042984;28;20033;-29
2022/10/27 02:56:49;;;;;;;13.43;9.73;;;12.80;99.90;;;;;;5017411;28;20065;-29
2022/10/27 02:59:15;;;;;;;13.60;9.65;;;12.70;99.90;;;;;;5028267;28;20028;-30
2022/10/27 03:01:41;;;;;;;13.55;9.52;;;12.70;99.90;;;;;;5031669;28;20045;-29
2022/10/27 03:04:07;;;;;;;11.93;9.25;;;12.70;99.90;;;;;;5035179;28;20382;-29
2022/10/27 03:06:33;;;;;;;16.52;10.80;;;12.60;99.90;;;;;;5029478;28;20483;-30
2022/10/27 03:08:58;;;;;;;12.23;10.88;;;12.60;99.90;;;;;;5014755;28;20116;-29
2022/10/27 03:11:24;;;;;;;11.77;9.55;;;12.50;99.90;;;;;;5038830;28;20045;-29
2022/10/27 03:13:50;;;;;;;14.98;10.27;;;12.50;99.90;;;;;;5036823;28;20398;-29
2022/10/27 03:16:15;;;;;;;10.55;9.23;;;12.50;99.90;;;;;;5031177;28;20043;-29
2022/10/27 03:18:41;;;;;;;11.48;9.90;;;12.50;99.90;;;;;;5033965;28;20045;-30
2022/10/27 03:21:07;;;;;;;11.40;9.15;;;12.40;99.90;;;;;;5028131;28;20034;-29
2022/10/27 03:23:32;;;;;;;11.10;8.93;;;12.40;99.90;;;;;;5041204;28;20041;-29
2022/10/27 03:25:59;;;;;;;15.70;10.07;;;12.30;99.90;;;;;;5029970;28;20068;-29
2022/10/27 03:28:25;;;;;;;11.88;10.07;;;12.30;99.90;;;;;;5005854;28;20120;-29
2022/10/27 03:30:51;;;;;;;10.95;9.85;;;12.30;99.90;;;;;;5034538;28;20041;-29
2022/10/27 03:33:16;;;;;;;12.35;8.85;;;12.30;99.90;;;;;;5035105;28;20048;-29
2022/10/27 03:35:42;;;;;;;12.57;9.93;;;12.30;99.90;;;;;;5042719;28;20041;-29
2022/10/27 03:38:08;;;;;;;12.68;9.27;;;12.20;99.90;;;;;;5028104;28;20079;-29
2022/10/27 03:40:34;;;;;;;13.23;9.85;;;12.20;99.90;;;;;;5042514;28;20049;-29
2022/10/27 03:43:00;;;;;;;11.75;9.18;;;12.10;99.90;;;;;;5043700;28;20029;-29
2022/10/27 03:45:27;;;;;;;14.60;9.93;;;12.10;99.90;;;;;;5044160;28;20119;-29
2022/10/27 03:48:07;;;;;;;11.63;9.23;;;12.10;99.90;;;;;;5045037;28;20033;-29
2022/10/27 03:50:33;;;;;;;13.38;10.10;;;12.10;99.90;;;;;;5033937;28;20059;-29
2022/10/27 03:52:59;;;;;;;14.32;10.07;;;12.10;99.90;;;;;;5044862;28;20047;-30
2022/10/27 03:55:25;;;;;;;14.43;9.93;;;12.00;99.90;;;;;;5043976;28;20040;-29
2022/10/27 03:57:51;;;;;;;12.73;9.35;;;12.10;99.90;;;;;;5021502;28;20037;-29
2022/10/27 04:00:18;;;;;;;13.40;9.80;;;12.00;99.90;;;;;;5044348;28;20039;-29
2022/10/27 04:02:44;;;;;;;12.35;10.38;;;12.00;99.90;;;;;;5033503;28;20499;-29
2022/10/27 04:05:10;;;;;;;11.38;9.63;;;12.00;99.90;;;;;;5046005;28;20025;-29
2022/10/27 04:07:35;;;;;;;16.30;10.63;;;12.00;99.90;;;;;;5040234;28;20033;-29
2022/10/27 04:10:01;;;;;;;11.85;9.35;;;12.00;99.90;;;;;;5040012;28;20068;-29
2022/10/27 04:12:26;;;;;;;13.88;10.82;;;11.90;99.90;;;;;;5043443;28;20040;-29
2022/10/27 04:14:52;;;;;;;14.55;11.02;;;11.90;99.90;;;;;;5038894;28;20043;-29
2022/10/27 04:17:18;;;;;;;18.10;12.60;;;11.90;99.90;;;;;;5034484;28;20084;-29
2022/10/27 04:19:44;;;;;;;11.48;9.90;;;12.00;99.90;;;;;;5038530;28;20108;-29
2022/10/27 04:22:10;;;;;;;12.13;9.95;;;11.90;99.90;;;;;;5033623;28;20088;-29
2022/10/27 04:24:39;;;;;;;12.45;9.38;;;11.90;99.90;;;;;;5026567;28;20040;-29
2022/10/27 04:27:05;;;;;;;15.00;9.63;;;11.90;99.90;;;;;;5037938;28;20048;-29
2022/10/27 04:29:31;;;;;;;16.05;12.63;;;11.90;99.90;;;;;;5037918;28;20052;-29
2022/10/27 04:31:56;;;;;;;14.15;11.88;;;12.00;99.90;;;;;;5017356;28;20040;-29
2022/10/27 04:34:22;;;;;;;18.20;13.70;;;12.00;99.90;;;;;;5034598;28;20060;-29
2022/10/27 04:36:48;;;;;;;18.75;13.77;;;12.00;99.90;;;;;;5026660;28;20513;-29
2022/10/27 04:39:14;;;;;;;15.98;11.95;;;12.00;99.90;;;;;;5039227;28;20033;-29
2022/10/27 04:41:40;;;;;;;17.20;12.02;;;12.00;99.90;;;;;;5029390;28;20044;-29
2022/10/27 04:44:06;;;;;;;16.13;12.50;;;12.00;99.90;;;;;;5021402;28;20037;-28
2022/10/27 04:46:31;;;;;;;14.32;11.10;;;12.00;99.90;;;;;;5033760;28;20107;-28
2022/10/27 04:48:57;;;;;;;12.77;10.45;;;12.00;99.90;;;;;;5043336;28;20545;-27
2022/10/27 04:51:24;;;;;;;15.88;11.95;;;12.00;99.90;;;;;;5025633;28;20042;-28
2022/10/27 04:53:50;;;;;;;12.35;10.73;;;12.00;99.90;;;;;;5042082;28;20037;-28
2022/10/27 04:56:15;;;;;;;14.18;11.65;;;12.00;99.90;;;;;;5031453;28;20048;-28
2022/10/27 04:58:42;;;;;;;14.57;12.60;;;12.00;99.90;;;;;;5041898;28;20041;-28
2022/10/27 05:01:12;;;;;;;15.57;12.93;;;12.00;99.90;;;;;;5029480;28;20513;-28
2022/10/27 05:03:38;;;;;;;12.65;11.35;;;12.00;99.90;;;;;;5051063;28;20025;-28
2022/10/27 05:06:04;;;;;;;12.75;11.25;;;12.10;99.90;;;;;;5029725;28;20045;-28
2022/10/27 05:08:30;;;;;;;13.90;12.25;;;12.00;99.90;;;;;;5016471;28;20033;-28
2022/10/27 05:10:55;;;;;;;13.73;11.85;;;12.00;99.90;;;;;;5037153;28;20422;-28
2022/10/27 05:13:21;;;;;;;14.55;11.68;;;12.10;99.90;;;;;;5024827;28;20099;-28
2022/10/27 05:15:47;;;;;;;13.32;11.25;;;12.10;99.90;;;;;;5040040;28;20124;-28
2022/10/27 05:18:13;;;;;;;14.90;11.57;;;12.10;99.90;;;;;;5033983;28;20069;-28
2022/10/27 05:20:38;;;;;;;14.57;12.40;;;12.20;99.90;;;;;;5039051;28;20055;-28
2022/10/27 05:23:04;;;;;;;18.42;12.80;;;12.20;99.90;;;;;;5007345;28;20030;-28
2022/10/27 05:25:30;;;;;;;14.25;11.18;;;12.20;99.90;;;;;;5046590;28;20076;-28
2022/10/27 05:28:07;;;;;;;12.15;10.85;;;12.20;99.90;;;;;;5038233;28;20036;-28
2022/10/27 05:30:33;;;;;;;12.98;11.02;;;12.20;99.90;;;;;;5029874;28;20041;-28
2022/10/27 05:32:59;;;;;;;13.45;11.65;;;12.20;99.90;;;;;;5036819;28;20116;-28
2022/10/27 05:35:25;;;;;;;11.88;10.55;;;12.10;99.90;;;;;;5032743;28;20072;-28
2022/10/27 05:37:51;;;;;;;16.92;11.60;;;12.20;99.90;;;;;;5028623;28;20041;-28
2022/10/27 05:40:17;;;;;;;14.90;11.75;;;12.20;99.90;;;;;;5028536;28;20048;-28
2022/10/27 05:42:51;;;;;;;14.02;11.43;;;12.20;99.90;;;;;;5032104;28;20029;-28
2022/10/27 05:45:17;;;;;;;15.75;12.63;;;12.20;99.90;;;;;;5004733;28;20554;-28
2022/10/27 05:47:42;;;;;;;16.05;11.85;;;12.20;99.90;;;;;;5028141;28;20029;-28
2022/10/27 05:50:08;;;;;;;15.75;12.75;;;12.30;99.90;;;;;;5032063;28;20163;-28
2022/10/27 05:52:37;;;;;;;17.77;12.95;;;12.30;99.90;;;;;;5032271;28;20045;-28
2022/10/27 05:55:03;;;;;;;18.30;14.23;;;12.40;99.90;;;;;;5023367;28;20033;-28
2022/10/27 05:57:28;;;;;;;15.30;12.93;;;12.50;99.90;;;;;;5033735;28;20029;-28
2022/10/27 05:59:54;;;;;;;16.50;13.15;;;12.50;99.90;;;;;;5017017;28;20038;-28
2022/10/27 06:02:20;;;;;;;17.40;12.93;;;12.50;99.90;;;;;;5000878;28;20401;-28
2022/10/27 06:04:45;;;;;;;14.85;11.48;;;12.60;99.90;;;;;;5011090;28;20025;-28
2022/10/27 06:07:11;;;;;;;13.23;11.55;;;12.60;99.90;;;;;;5016115;28;20037;-28
2022/10/27 06:09:37;;;;;;;19.33;13.82;;;12.50;99.90;;;;;;5008891;28;20240;-28
2022/10/27 06:12:02;;;;;;;13.43;11.43;;;12.50;99.90;;;;;;5011350;28;20092;-28
2022/10/27 06:14:34;;;;;;;19.08;13.20;;;12.50;99.90;;;;;;5034292;28;20108;-28
2022/10/27 06:17:06;;;;;;;19.88;12.88;;;12.50;99.90;;;;;;5016706;28;20152;-28
2022/10/27 06:19:32;;;;;;;16.05;13.02;;;12.50;99.90;;;;;;5032806;28;20542;-28
2022/10/27 06:21:58;;;;;;;15.80;13.10;;;12.60;99.90;;;;;;5033329;28;20037;-28
2022/10/27 06:24:24;;;;;;;16.38;13.52;;;12.60;99.90;;;;;;5032458;28;20041;-28
2022/10/27 06:26:53;;;;;;;17.60;13.13;;;12.70;99.90;;;;;;5030178;28;20033;-28
2022/10/27 06:29:18;;;;;;;16.95;11.40;;;12.70;99.90;;;;;;5028578;28;20092;-28
2022/10/27 06:31:44;;;;;;;19.23;12.82;;;12.80;99.90;;;;;;5016020;28;20483;-28
2022/10/27 06:34:16;;;;;;;12.77;11.48;;;12.80;99.90;;;;;;5025047;28;20037;-28
2022/10/27 06:36:41;;;;;;;14.73;11.25;;;12.80;99.90;;;;;;5029971;28;20037;-28
2022/10/27 06:39:07;;;;;;;18.20;12.80;;;12.80;99.90;;;;;;5015541;28;20033;-28
2022/10/27 06:41:33;;;;;;;19.08;14.35;;;12.80;99.90;;;;;;5029315;28;20413;-28
2022/10/27 06:43:59;;;;;;;16.48;12.52;;;12.80;99.90;;;;;;5014351;28;20033;-28
2022/10/27 06:46:25;;;;;;;20.90;13.20;;;12.80;99.90;;;;;;5005581;28;20115;-28
2022/10/27 06:48:51;;;;;;;17.88;12.80;;;12.90;99.90;;;;;;5039690;28;20041;-28
2022/10/27 06:51:17;;;;;;;16.35;12.45;;;12.90;99.90;;;;;;5012927;28;20141;-28
2022/10/27 06:53:42;;;;;;;14.35;12.00;;;12.90;99.90;;;;;;5012497;28;20438;-28
2022/10/27 06:56:08;;;;;;;13.15;11.60;;;13.00;99.90;;;;;;5038140;28;20104;-28
2022/10/27 06:58:38;;;;;;;16.35;12.35;;;12.90;99.90;;;;;;5006806;28;20476;-28
2022/10/27 07:01:04;;;;;;;15.20;11.82;;;12.90;99.90;;;;;;5002016;28;20081;-28
2022/10/27 07:03:34;;;;;;;17.70;11.63;;;12.90;99.90;;;;;;5003969;28;20391;-28
2022/10/27 07:06:00;;;;;;;17.13;11.52;;;13.00;99.90;;;;;;5026219;28;20041;-28
2022/10/27 07:08:25;;;;;;;15.43;11.45;;;13.00;99.90;;;;;;5031946;28;20037;-28
2022/10/27 07:10:53;;;;;;;18.70;12.45;;;13.00;99.90;;;;;;5035096;28;20414;-28
2022/10/27 07:13:19;;;;;;;12.98;11.10;;;13.00;99.90;;;;;;5024369;28;20402;-28
2022/10/27 07:15:44;;;;;;;14.18;12.57;;;13.00;99.90;;;;;;5023846;28;20121;-28
2022/10/27 07:18:10;;;;;;;14.90;11.20;;;13.10;99.90;;;;;;5026929;28;20041;-28
2022/10/27 07:20:40;;;;;;;17.42;12.90;;;13.10;99.90;;;;;;5032385;28;20079;-28
2022/10/27 07:23:07;;;;;;;16.52;11.60;;;13.20;99.90;;;;;;5027058;28;20036;-28
2022/10/27 07:25:34;;;;;;;16.15;12.20;;;13.20;99.90;;;;;;5025873;28;20496;-28
2022/10/27 07:28:02;;;;;;;17.98;12.20;;;13.30;99.90;;;;;;5026013;28;20033;-28
2022/10/27 07:30:38;;;;;;;17.02;12.70;;;13.30;99.90;;;;;;5022967;28;20041;-28
2022/10/27 07:33:05;;;;;;;16.58;12.15;;;13.40;99.90;;;;;;5027198;28;20036;-28
2022/10/27 07:35:32;;;;;;;15.15;12.52;;;13.50;99.90;;;;;;5035266;28;20038;-28
2022/10/27 07:37:58;;;;;;;15.57;11.98;;;13.60;99.90;;;;;;5041195;28;20037;-28
2022/10/27 07:40:23;;;;;;;19.48;12.48;;;13.60;99.90;;;;;;5037034;28;20120;-28
2022/10/27 07:42:52;;;;;;;17.35;12.45;;;13.70;99.90;;;;;;5036741;28;20034;-29
2022/10/27 07:45:20;;;;;;;21.50;12.65;;;13.80;99.90;;;;;;5039539;28;20486;-28
2022/10/27 07:47:47;;;;;;;15.02;11.35;;;13.90;99.90;;;;;;5039974;28;20033;-29
2022/10/27 07:50:14;;;;;;;17.70;13.70;;;13.90;99.90;;;;;;5022067;28;20183;-29
2022/10/27 07:52:43;;;;;;;16.75;11.77;;;14.00;99.90;;;;;;5028212;28;20037;-29
2022/10/27 07:55:11;;;;;;;17.02;13.10;;;14.10;99.90;;;;;;5025874;28;20038;-29
2022/10/27 07:57:37;;;;;;;16.55;12.90;;;14.10;99.90;;;;;;5036014;28;20099;-29
2022/10/27 08:00:04;;;;;;;16.45;12.23;;;14.20;99.90;;;;;;5031569;28;20045;-29
2022/10/27 08:02:30;;;;;;;15.32;11.90;;;14.30;99.90;;;;;;5034264;28;20045;-29
2022/10/27 08:04:56;;;;;;;15.13;11.50;;;14.40;99.90;;;;;;5035410;28;20041;-29
2022/10/27 08:07:22;;;;;;;16.05;11.43;;;14.40;99.90;;;;;;5031452;28;20041;-28
2022/10/27 08:09:48;;;;;;;14.73;11.55;;;14.50;99.90;;;;;;5034138;28;20082;-28
2022/10/27 08:12:14;;;;;;;14.95;10.68;;;14.60;99.90;;;;;;5036193;28;20095;-28
2022/10/27 08:14:40;;;;;;;11.55;9.77;;;14.80;99.90;;;;;;5039685;28;20455;-28
2022/10/27 08:17:05;;;;;;;12.93;10.23;;;15.00;99.90;;;;;;5034403;28;20029;-28
2022/10/27 08:19:31;;;;;;;16.02;10.48;;;15.30;99.90;;;;;;5031680;28;20029;-28
2022/10/27 08:21:57;;;;;;;13.77;9.75;;;15.50;99.90;;;;;;5026271;28;20045;-28
2022/10/27 08:24:22;;;;;;;11.38;9.27;;;15.70;99.90;;;;;;5041368;28;20037;-28
2022/10/27 08:26:48;;;;;;;11.30;9.68;;;15.80;99.90;;;;;;5035537;28;20033;-28
2022/10/27 08:29:14;;;;;;;11.80;9.07;;;15.70;99.90;;;;;;5044782;28;20037;-28
2022/10/27 08:31:39;;;;;;;11.65;8.77;;;15.80;99.90;;;;;;5025058;28;20037;-28
2022/10/27 08:34:05;;;;;;;11.13;8.65;;;15.80;99.90;;;;;;5037553;28;20177;-28
2022/10/27 08:36:37;;;;;;;12.43;9.05;;;15.80;99.90;;;;;;5026273;28;20088;-28
2022/10/27 08:39:04;;;;;;;11.75;8.65;;;15.80;99.90;;;;;;5036117;28;20041;-28
2022/10/27 08:41:50;;;;;;;9.90;8.38;;;15.80;99.90;;;;;;5035524;28;20045;-29
2022/10/27 08:44:51;;;;;;;11.95;8.05;;;15.70;99.90;;;;;;5025694;28;20128;-29
2022/10/27 08:47:22;;;;;;;12.10;8.35;;;15.70;99.90;;;;;;5007389;28;20072;-29
2022/10/27 08:49:53;;;;;;;14.25;8.52;;;15.80;99.90;;;;;;5032281;28;20095;-29
2022/10/27 08:53:09;;;;;;;10.05;8.63;;;15.70;99.90;;;;;;5039291;28;20068;-29
2022/10/27 08:55:41;;;;;;;10.27;7.70;;;15.80;99.90;;;;;;4972719;28;20061;-29
2022/10/27 08:58:18;;;;;;;10.77;8.20;;;16.10;99.90;;;;;;5029484;28;20417;-29
2022/10/27 09:00:52;;;;;;;12.02;8.02;;;16.60;99.90;;;;;;5031675;28;20081;-29
2022/10/27 09:03:36;;;;;;;9.73;7.60;;;17.10;99.90;;;;;;5040187;28;20414;-29
2022/10/27 09:06:21;;;;;;;8.00;6.82;;;17.70;99.90;;;;;;5032990;28;20521;-29
2022/10/27 09:09:25;;;;;;;9.30;7.68;;;18.20;99.90;;;;;;5025686;28;20033;-27
2022/10/27 09:11:57;;;;;;;11.05;7.28;;;18.60;99.90;;;;;;5018116;28;20388;-29
2022/10/27 09:14:46;;;;;;;10.10;6.82;;;19.10;99.90;;;;;;5029815;28;20049;-29
2022/10/27 09:17:24;;;;;;;9.55;7.22;;;19.50;99.90;;;;;;5015681;28;20735;-29
2022/10/27 09:19:55;;;;;;;12.73;6.93;;;19.70;99.90;;;;;;5025955;28;20055;-29
2022/10/27 09:22:23;;;;;;;8.40;6.38;;;20.00;99.90;;;;;;5032704;28;20076;-29
2022/10/27 09:25:01;;;;;;;8.50;5.95;;;20.20;99.90;;;;;;5037793;28;20041;-29
2022/10/27 09:27:27;;;;;;;7.97;5.50;;;20.30;99.90;;;;;;5017850;28;20045;-29
2022/10/27 09:30:00;;;;;;;9.20;5.88;;;20.70;99.90;;;;;;5038491;28;20037;-30
2022/10/27 09:32:26;;;;;;;7.25;5.82;;;20.70;99.90;;;;;;5040234;28;20375;-30
2022/10/27 09:35:09;;;;;;;9.02;4.97;;;20.70;99.90;;;;;;5039443;28;20033;-30
2022/10/27 09:37:40;;;;;;;6.57;5.35;;;20.60;99.90;;;;;;5047745;28;20052;-30
2022/10/27 09:40:15;;;;;;;8.25;5.63;;;20.50;99.90;;;;;;5025178;28;20038;-29
2022/10/27 09:42:41;;;;;;;7.75;4.80;;;20.60;99.90;;;;;;5035653;28;20033;-29
2022/10/27 09:45:13;;;;;;;6.88;5.25;;;20.60;99.90;;;;;;5046093;28;20029;-27
2022/10/27 09:47:41;;;;;;;6.93;5.00;;;20.60;99.90;;;;;;5034860;28;20068;-27
2022/10/27 09:50:21;;;;;;;7.10;5.47;;;20.50;99.90;;;;;;5034315;28;20055;-28
2022/10/27 09:52:47;;;;;;;6.88;4.22;;;20.40;99.90;;;;;;5035691;28;20031;-28
2022/10/27 09:55:14;;;;;;;5.55;3.85;;;20.60;99.90;;;;;;5047021;28;20390;-28
2022/10/27 09:57:42;;;;;;;9.88;4.15;;;20.70;99.90;;;;;;5012200;28;20041;-28
2022/10/27 10:00:20;;;;;;;6.13;4.13;;;20.70;99.90;;;;;;5037287;28;20080;-28
2022/10/27 10:03:16;;;;;;;5.55;3.90;;;20.60;99.90;;;;;;5038064;28;20445;-28
2022/10/27 10:05:43;;;;;;;6.55;4.13;;;20.50;99.90;;;;;;5003166;28;20708;-28
2022/10/27 10:08:12;;;;;;;4.78;3.88;;;20.50;99.90;;;;;;5038577;28;20059;-28
2022/10/27 10:10:39;;;;;;;7.35;3.95;;;20.50;99.90;;;;;;5039291;28;20557;-28
2022/10/27 10:13:12;;;;;;;5.03;4.28;;;20.40;99.90;;;;;;5032042;28;20030;-28
2022/10/27 10:15:45;;;;;;;7.13;4.07;;;20.30;99.90;;;;;;5045753;28;20040;-28
2022/10/27 10:18:23;;;;;;;8.52;3.47;;;20.20;99.90;;;;;;5037217;28;20287;-28
2022/10/27 10:20:57;;;;;;;4.50;2.75;;;20.30;99.90;;;;;;5035411;28;20037;-28
2022/10/27 10:23:26;;;;;;;6.00;2.80;;;20.50;99.90;;;;;;5039440;28;20043;-28
2022/10/27 10:25:56;;;;;;;4.13;2.78;;;20.60;99.90;;;;;;5035377;28;20040;-29
2022/10/27 10:28:33;;;;;;;6.70;2.85;;;21.00;99.90;;;;;;5041127;28;20052;-29
2022/10/27 10:31:00;;;;;;;4.10;2.58;;;21.50;99.90;;;;;;5043084;28;20025;-29
2022/10/27 10:33:31;;;;;;;4.63;2.58;;;21.70;99.90;;;;;;5038837;28;20037;-29
2022/10/27 10:35:57;;;;;;;10.50;3.15;;;21.70;99.90;;;;;;5013293;28;20033;-29
2022/10/27 10:38:24;;;;;;;4.78;2.67;;;21.70;99.90;;;;;;5043246;28;20083;-29
2022/10/27 10:41:01;;;;;;;6.25;3.13;;;21.60;99.90;;;;;;5022414;28;20038;-29
2022/10/27 10:43:27;;;;;;;5.60;2.53;;;21.50;99.90;;;;;;5041827;28;20082;-29
2022/10/27 10:45:53;;;;;;;5.22;2.67;;;21.50;99.90;;;;;;5086521;23;20144;-85
2022/10/27 10:48:28;;;;;;;4.32;2.47;;;21.40;99.90;;;;;;5031555;28;20033;-85
2022/10/27 10:50:54;;;;;;;4.97;2.80;;;21.40;99.90;;;;;;5037964;28;20400;-84
2022/10/27 10:53:22;;;;;;;4.90;2.10;;;21.30;99.90;;;;;;5051809;28;20075;-85
2022/10/27 10:55:48;;;;;;;6.47;2.42;;;21.20;99.90;;;;;;5042878;28;20090;-85
2022/10/27 10:58:18;;;;;;;4.72;2.28;;;21.00;99.90;;;;;;5049585;28;20462;-85
2022/10/27 11:00:56;;;;;;;5.82;2.78;;;21.00;99.90;;;;;;5048319;28;20124;-84
2022/10/27 11:03:24;;;;;;;3.30;2.00;;;20.90;99.90;;;;;;5058633;28;20047;-85
2022/10/27 11:05:57;;;;;;;3.45;2.15;;;20.80;99.90;;;;;;5051686;28;20060;-85
2022/10/27 11:08:27;;;;;;;4.00;2.13;;;20.80;99.90;;;;;;5046690;28;20112;-85
2022/10/27 11:10:55;;;;;;;3.17;1.90;;;20.80;99.90;;;;;;5046702;28;20120;-85
2022/10/27 11:13:25;;;;;;;3.85;2.10;;;21.00;99.90;;;;;;5033619;28;20045;-85
2022/10/27 11:15:53;;;;;;;4.13;1.80;;;21.30;99.90;;;;;;5054184;28;20044;-85
2022/10/27 11:18:23;;;;;;;2.95;1.80;;;21.40;99.90;;;;;;5054739;28;20056;-85
2022/10/27 11:20:55;;;;;;;4.32;2.00;;;21.40;99.90;;;;;;5031347;28;20410;-85
2022/10/27 11:23:40;;;;;;;4.43;2.35;;;21.50;99.90;;;;;;5042537;28;20037;-85
2022/10/27 11:26:07;;;;;;;4.05;2.08;;;21.60;99.90;;;;;;5048982;28;20033;-84
2022/10/27 11:28:39;;;;;;;4.38;2.00;;;21.60;99.90;;;;;;5038501;28;20037;-85
2022/10/27 11:31:32;;;;;;;4.25;2.10;;;21.60;99.90;;;;;;5056520;28;20032;-85
2022/10/27 11:34:17;;;;;;;;;;;21.50;99.90;;;;;;5034225;28;20040;-85
2022/10/27 11:37:00;;;;;;;4.35;2.25;;;21.30;99.90;;;;;;5034977;28;19962;-85
2022/10/27 11:39:32;;;;;;;5.00;2.25;;;21.20;99.90;;;;;;5040459;28;20075;-85
2022/10/27 11:42:14;;;;;;;3.47;2.05;;;21.10;99.90;;;;;;5047716;28;20116;-85
2022/10/27 11:45:24;;;;;;;2.60;1.92;;;21.00;99.90;;;;;;5040544;28;20040;-84
2022/10/27 11:48:03;;;;;;;7.85;2.47;;;20.80;99.90;;;;;;4991156;28;20037;-84
2022/10/27 11:50:49;;;;;;;5.75;2.17;;;20.80;99.90;;;;;;5052291;28;20063;-85
2022/10/27 11:53:16;;;;;;;3.90;2.20;;;20.70;99.90;;;;;;5051415;28;20037;-85
2022/10/27 11:56:24;;;;;;;3.30;2.10;;;20.70;99.90;;;;;;5050887;28;20449;-85
2022/10/27 11:59:24;;;;;;;3.58;2.30;;;20.50;99.90;;;;;;5010999;28;20048;-85
2022/10/27 12:02:01;;;;;;;5.32;1.95;;;20.40;99.90;;;;;;5010698;28;20041;-84
2022/10/27 12:05:00;;;;;;;5.15;2.38;;;20.40;99.90;;;;;;5044696;28;20464;-85
2022/10/27 12:07:38;;;;;;;4.95;1.92;;;20.30;99.90;;;;;;5045787;28;20072;-85
2022/10/27 12:10:12;;;;;;;4.85;2.15;;;20.30;99.90;;;;;;5056292;28;20036;-85
2022/10/27 12:12:42;;;;;;;5.38;2.15;;;20.30;99.90;;;;;;5043774;28;20036;-86
2022/10/27 12:15:26;;;;;;;3.40;2.20;;;20.50;99.90;;;;;;5057920;28;20033;-85
2022/10/27 12:18:22;;;;;;;4.25;2.75;;;20.60;99.90;;;;;;5065165;28;20028;-85
2022/10/27 12:20:57;;;;;;;3.92;2.42;;;20.60;99.90;;;;;;5033764;28;20033;-85
2022/10/27 12:23:25;;;;;;;3.65;2.20;;;20.70;99.90;;;;;;5062781;28;20032;-86
2022/10/27 12:25:55;;;;;;;4.57;2.25;;;20.80;99.90;;;;;;5041668;28;20502;-85
2022/10/27 12:28:24;;;;;;;6.32;2.65;;;20.80;99.90;;;;;;5038746;28;20476;-85
2022/10/27 12:30:50;;;;;;;3.17;2.03;;;20.80;99.90;;;;;;5060774;28;20047;-84
2022/10/27 12:33:27;;;;;;;4.70;2.40;;;21.00;99.90;;;;;;5056670;28;20405;-85
2022/10/27 12:35:58;;;;;;;7.95;2.50;;;21.30;99.90;;;;;;5051563;28;20047;-86
2022/10/27 12:38:50;;;;;;;7.75;2.30;;;21.70;99.90;;;;;;5061745;28;20116;-85
2022/10/27 12:41:48;;;;;;;4.95;2.35;;;21.70;99.90;;;;;;5060399;28;20041;-85
2022/10/27 12:44:19;;;;;;;3.03;2.25;;;21.60;99.90;;;;;;5055176;28;20045;-86
2022/10/27 12:46:56;;;;;;;5.57;2.00;;;21.40;99.90;;;;;;5048945;28;20550;-85
2022/10/27 12:49:37;;;;;;;7.40;2.22;;;21.20;99.90;;;;;;5055496;28;20124;-85
2022/10/27 12:52:07;;;;;;;3.30;2.28;;;21.10;99.90;;;;;;5058122;28;20528;-85
2022/10/27 12:54:58;;;;;;;3.28;2.28;;;21.00;99.90;;;;;;5053188;28;20120;-85